sensor_id;sensor_type;location;lat;lon;timestamp;temperature;humidity
17415;DHT22;8825;48.086;16.426;2023-07-31T00:02:16;21.50;61.80
17415;DHT22;8825;48.086;16.426;2023-07-31T00:04:43;21.40;61.80
17415;DHT22;8825;48.086;16.426;2023-07-31T00:07:11;21.50;61.80
17415;DHT22;8825;48.086;16.426;2023-07-31T00:09:39;21.40;61.80
17415;DHT22;8825;48.086;16.426;2023-07-31T00:12:07;21.40;61.80
17415;DHT22;8825;48.086;16.426;2023-07-31T00:14:34;21.40;61.70
17415;DHT22;8825;48.086;16.426;2023-07-31T00:17:02;21.30;62.40
17415;DHT22;8825;48.086;16.426;2023-07-31T00:19:30;21.30;61.50
17415;DHT22;8825;48.086;16.426;2023-07-31T00:21:57;21.30;61.40
17415;DHT22;8825;48.086;16.426;2023-07-31T00:24:25;21.20;62.20
17415;DHT22;8825;48.086;16.426;2023-07-31T00:26:52;21.30;61.30
17415;DHT22;8825;48.086;16.426;2023-07-31T00:29:20;21.30;61.30
17415;DHT22;8825;48.086;16.426;2023-07-31T00:31:47;21.20;61.20
17415;DHT22;8825;48.086;16.426;2023-07-31T00:34:15;21.20;61.10
17415;DHT22;8825;48.086;16.426;2023-07-31T00:36:42;21.20;61.00
17415;DHT22;8825;48.086;16.426;2023-07-31T00:39:10;21.20;60.90
17415;DHT22;8825;48.086;16.426;2023-07-31T00:41:37;21.20;60.80
17415;DHT22;8825;48.086;16.426;2023-07-31T00:44:05;21.10;60.70
17415;DHT22;8825;48.086;16.426;2023-07-31T00:46:32;21.10;60.70
17415;DHT22;8825;48.086;16.426;2023-07-31T00:49:00;21.10;60.60
17415;DHT22;8825;48.086;16.426;2023-07-31T00:51:29;21.10;60.60
17415;DHT22;8825;48.086;16.426;2023-07-31T00:53:56;21.00;60.50
17415;DHT22;8825;48.086;16.426;2023-07-31T00:56:25;21.00;60.30
17415;DHT22;8825;48.086;16.426;2023-07-31T00:58:53;21.00;60.30
17415;DHT22;8825;48.086;16.426;2023-07-31T01:01:21;21.00;60.30
17415;DHT22;8825;48.086;16.426;2023-07-31T01:03:51;21.00;60.20
17415;DHT22;8825;48.086;16.426;2023-07-31T01:09:19;21.00;60.10
17415;DHT22;8825;48.086;16.426;2023-07-31T01:11:57;20.90;60.10
17415;DHT22;8825;48.086;16.426;2023-07-31T01:14:26;20.90;59.90
17415;DHT22;8825;48.086;16.426;2023-07-31T01:16:54;20.90;60.30
17415;DHT22;8825;48.086;16.426;2023-07-31T01:19:24;20.80;60.50
17415;DHT22;8825;48.086;16.426;2023-07-31T01:22:23;20.70;60.40
17415;DHT22;8825;48.086;16.426;2023-07-31T01:27:44;20.50;61.30
17415;DHT22;8825;48.086;16.426;2023-07-31T01:30:10;20.40;61.60
17415;DHT22;8825;48.086;16.426;2023-07-31T01:32:40;20.30;61.70
17415;DHT22;8825;48.086;16.426;2023-07-31T01:35:10;20.30;61.80
17415;DHT22;8825;48.086;16.426;2023-07-31T01:37:38;20.30;61.90
17415;DHT22;8825;48.086;16.426;2023-07-31T01:40:07;20.30;62.00
17415;DHT22;8825;48.086;16.426;2023-07-31T01:42:35;20.30;62.20
17415;DHT22;8825;48.086;16.426;2023-07-31T01:45:02;20.30;62.30
17415;DHT22;8825;48.086;16.426;2023-07-31T01:47:30;20.20;62.30
17415;DHT22;8825;48.086;16.426;2023-07-31T01:49:57;20.20;62.40
17415;DHT22;8825;48.086;16.426;2023-07-31T01:52:25;20.30;62.40
17415;DHT22;8825;48.086;16.426;2023-07-31T01:54:52;20.20;62.20
17415;DHT22;8825;48.086;16.426;2023-07-31T01:57:20;20.30;62.40
17415;DHT22;8825;48.086;16.426;2023-07-31T01:59:47;20.30;63.40
17415;DHT22;8825;48.086;16.426;2023-07-31T02:02:15;20.30;62.70
17415;DHT22;8825;48.086;16.426;2023-07-31T02:04:43;20.30;62.80
17415;DHT22;8825;48.086;16.426;2023-07-31T02:07:10;20.30;63.10
17415;DHT22;8825;48.086;16.426;2023-07-31T02:09:38;20.30;63.30
17415;DHT22;8825;48.086;16.426;2023-07-31T02:12:05;20.30;63.50
17415;DHT22;8825;48.086;16.426;2023-07-31T02:14:35;20.30;63.70
17415;DHT22;8825;48.086;16.426;2023-07-31T02:17:02;20.30;63.70
17415;DHT22;8825;48.086;16.426;2023-07-31T02:19:30;20.20;63.70
17415;DHT22;8825;48.086;16.426;2023-07-31T02:21:57;20.20;63.80
17415;DHT22;8825;48.086;16.426;2023-07-31T02:24:25;20.20;63.70
17415;DHT22;8825;48.086;16.426;2023-07-31T02:26:52;20.20;63.60
17415;DHT22;8825;48.086;16.426;2023-07-31T02:29:20;20.10;63.30
17415;DHT22;8825;48.086;16.426;2023-07-31T02:31:47;20.10;63.20
17415;DHT22;8825;48.086;16.426;2023-07-31T02:34:15;20.10;63.20
17415;DHT22;8825;48.086;16.426;2023-07-31T02:36:42;20.10;63.10
17415;DHT22;8825;48.086;16.426;2023-07-31T02:39:10;20.10;62.90
17415;DHT22;8825;48.086;16.426;2023-07-31T02:41:37;20.10;62.80
17415;DHT22;8825;48.086;16.426;2023-07-31T02:44:05;20.10;62.80
17415;DHT22;8825;48.086;16.426;2023-07-31T02:46:32;20.10;62.80
17415;DHT22;8825;48.086;16.426;2023-07-31T02:49:00;20.10;62.70
17415;DHT22;8825;48.086;16.426;2023-07-31T02:51:27;20.10;62.70
17415;DHT22;8825;48.086;16.426;2023-07-31T02:53:55;20.10;62.60
17415;DHT22;8825;48.086;16.426;2023-07-31T02:56:22;20.20;62.70
17415;DHT22;8825;48.086;16.426;2023-07-31T02:58:50;20.20;62.60
17415;DHT22;8825;48.086;16.426;2023-07-31T03:01:17;20.20;62.50
17415;DHT22;8825;48.086;16.426;2023-07-31T03:03:45;20.20;62.30
17415;DHT22;8825;48.086;16.426;2023-07-31T03:06:12;20.20;62.20
17415;DHT22;8825;48.086;16.426;2023-07-31T03:08:40;20.30;62.20
17415;DHT22;8825;48.086;16.426;2023-07-31T03:11:07;20.30;62.20
17415;DHT22;8825;48.086;16.426;2023-07-31T03:13:35;20.30;62.20
17415;DHT22;8825;48.086;16.426;2023-07-31T03:16:02;20.30;62.10
17415;DHT22;8825;48.086;16.426;2023-07-31T03:18:30;20.30;62.10
17415;DHT22;8825;48.086;16.426;2023-07-31T03:20:57;20.30;62.10
17415;DHT22;8825;48.086;16.426;2023-07-31T03:23:25;20.30;62.10
17415;DHT22;8825;48.086;16.426;2023-07-31T03:25:57;20.30;62.10
17415;DHT22;8825;48.086;16.426;2023-07-31T03:28:25;20.30;62.30
17415;DHT22;8825;48.086;16.426;2023-07-31T03:30:53;20.30;62.30
17415;DHT22;8825;48.086;16.426;2023-07-31T03:33:21;20.30;62.40
17415;DHT22;8825;48.086;16.426;2023-07-31T03:35:48;20.30;62.60
17415;DHT22;8825;48.086;16.426;2023-07-31T03:38:16;20.30;62.70
17415;DHT22;8825;48.086;16.426;2023-07-31T03:40:43;20.30;62.80
17415;DHT22;8825;48.086;16.426;2023-07-31T03:43:11;20.30;63.00
17415;DHT22;8825;48.086;16.426;2023-07-31T03:45:39;20.30;63.90
17415;DHT22;8825;48.086;16.426;2023-07-31T03:48:07;20.30;63.10
17415;DHT22;8825;48.086;16.426;2023-07-31T03:50:35;20.30;63.30
17415;DHT22;8825;48.086;16.426;2023-07-31T03:53:02;20.30;63.30
17415;DHT22;8825;48.086;16.426;2023-07-31T03:55:30;20.30;63.50
17415;DHT22;8825;48.086;16.426;2023-07-31T03:57:58;20.30;63.70
17415;DHT22;8825;48.086;16.426;2023-07-31T04:00:27;20.30;63.80
17415;DHT22;8825;48.086;16.426;2023-07-31T04:02:54;20.30;64.00
17415;DHT22;8825;48.086;16.426;2023-07-31T04:05:22;20.30;64.10
17415;DHT22;8825;48.086;16.426;2023-07-31T04:07:49;20.30;64.40
17415;DHT22;8825;48.086;16.426;2023-07-31T04:10:17;20.30;64.50
17415;DHT22;8825;48.086;16.426;2023-07-31T04:12:44;20.40;64.60
17415;DHT22;8825;48.086;16.426;2023-07-31T04:15:12;20.40;64.60
17415;DHT22;8825;48.086;16.426;2023-07-31T04:17:39;20.40;64.70
17415;DHT22;8825;48.086;16.426;2023-07-31T04:20:07;20.40;64.80
17415;DHT22;8825;48.086;16.426;2023-07-31T04:22:35;20.50;64.80
17415;DHT22;8825;48.086;16.426;2023-07-31T04:25:03;20.50;64.80
17415;DHT22;8825;48.086;16.426;2023-07-31T04:27:30;20.50;64.70
17415;DHT22;8825;48.086;16.426;2023-07-31T04:29:58;20.60;64.70
17415;DHT22;8825;48.086;16.426;2023-07-31T04:32:25;20.60;64.60
17415;DHT22;8825;48.086;16.426;2023-07-31T04:34:53;20.70;64.50
17415;DHT22;8825;48.086;16.426;2023-07-31T04:37:28;20.70;64.40
17415;DHT22;8825;48.086;16.426;2023-07-31T04:39:54;20.80;64.30
17415;DHT22;8825;48.086;16.426;2023-07-31T04:42:24;20.80;64.10
17415;DHT22;8825;48.086;16.426;2023-07-31T04:44:51;20.90;63.90
17415;DHT22;8825;48.086;16.426;2023-07-31T04:47:20;21.00;63.70
17415;DHT22;8825;48.086;16.426;2023-07-31T04:49:47;20.90;63.60
17415;DHT22;8825;48.086;16.426;2023-07-31T04:52:15;21.00;63.50
17415;DHT22;8825;48.086;16.426;2023-07-31T04:54:42;21.00;63.50
17415;DHT22;8825;48.086;16.426;2023-07-31T04:57:10;21.10;63.60
17415;DHT22;8825;48.086;16.426;2023-07-31T04:59:37;21.10;63.40
17415;DHT22;8825;48.086;16.426;2023-07-31T05:02:07;21.20;63.40
17415;DHT22;8825;48.086;16.426;2023-07-31T05:04:34;21.20;63.20
17415;DHT22;8825;48.086;16.426;2023-07-31T05:07:02;21.30;63.00
17415;DHT22;8825;48.086;16.426;2023-07-31T05:09:29;21.40;62.70
17415;DHT22;8825;48.086;16.426;2023-07-31T05:11:57;21.40;62.20
17415;DHT22;8825;48.086;16.426;2023-07-31T05:14:25;21.50;61.80
17415;DHT22;8825;48.086;16.426;2023-07-31T05:16:53;21.50;61.40
17415;DHT22;8825;48.086;16.426;2023-07-31T05:19:20;21.60;61.00
17415;DHT22;8825;48.086;16.426;2023-07-31T05:21:48;21.60;60.30
17415;DHT22;8825;48.086;16.426;2023-07-31T05:24:15;21.60;59.90
17415;DHT22;8825;48.086;16.426;2023-07-31T05:26:43;21.70;59.60
17415;DHT22;8825;48.086;16.426;2023-07-31T05:29:10;21.70;59.50
17415;DHT22;8825;48.086;16.426;2023-07-31T05:31:38;21.70;59.30
17415;DHT22;8825;48.086;16.426;2023-07-31T05:34:05;21.70;59.00
17415;DHT22;8825;48.086;16.426;2023-07-31T05:36:33;21.70;58.80
17415;DHT22;8825;48.086;16.426;2023-07-31T05:39:00;21.70;58.70
17415;DHT22;8825;48.086;16.426;2023-07-31T05:41:29;21.80;58.70
17415;DHT22;8825;48.086;16.426;2023-07-31T05:43:57;21.80;58.60
17415;DHT22;8825;48.086;16.426;2023-07-31T05:46:24;21.90;58.60
17415;DHT22;8825;48.086;16.426;2023-07-31T05:48:52;21.90;58.30
17415;DHT22;8825;48.086;16.426;2023-07-31T05:51:19;22.00;58.20
17415;DHT22;8825;48.086;16.426;2023-07-31T05:53:47;22.00;58.10
17415;DHT22;8825;48.086;16.426;2023-07-31T05:56:14;22.10;58.00
17415;DHT22;8825;48.086;16.426;2023-07-31T05:58:42;22.10;57.70
17415;DHT22;8825;48.086;16.426;2023-07-31T06:01:09;22.20;57.60
17415;DHT22;8825;48.086;16.426;2023-07-31T06:03:37;22.20;57.40
17415;DHT22;8825;48.086;16.426;2023-07-31T06:06:04;22.30;57.30
17415;DHT22;8825;48.086;16.426;2023-07-31T06:08:32;22.30;56.60
17415;DHT22;8825;48.086;16.426;2023-07-31T06:10:59;22.40;56.60
17415;DHT22;8825;48.086;16.426;2023-07-31T06:13:27;22.40;56.60
17415;DHT22;8825;48.086;16.426;2023-07-31T06:15:54;22.50;56.60
17415;DHT22;8825;48.086;16.426;2023-07-31T06:18:22;22.60;56.30
17415;DHT22;8825;48.086;16.426;2023-07-31T06:20:49;22.60;56.10
17415;DHT22;8825;48.086;16.426;2023-07-31T06:23:22;22.70;56.20
17415;DHT22;8825;48.086;16.426;2023-07-31T06:25:49;22.80;56.00
17415;DHT22;8825;48.086;16.426;2023-07-31T06:28:17;22.90;55.70
17415;DHT22;8825;48.086;16.426;2023-07-31T06:30:44;22.90;55.40
17415;DHT22;8825;48.086;16.426;2023-07-31T06:33:12;23.00;55.00
17415;DHT22;8825;48.086;16.426;2023-07-31T06:35:39;23.10;54.30
17415;DHT22;8825;48.086;16.426;2023-07-31T06:38:07;23.10;53.60
17415;DHT22;8825;48.086;16.426;2023-07-31T06:40:34;23.10;53.20
17415;DHT22;8825;48.086;16.426;2023-07-31T06:43:02;23.10;52.80
17415;DHT22;8825;48.086;16.426;2023-07-31T06:45:31;23.20;52.50
17415;DHT22;8825;48.086;16.426;2023-07-31T06:47:58;23.20;52.50
17415;DHT22;8825;48.086;16.426;2023-07-31T06:50:29;23.30;52.40
17415;DHT22;8825;48.086;16.426;2023-07-31T06:52:57;23.30;52.00
17415;DHT22;8825;48.086;16.426;2023-07-31T06:55:26;23.30;51.80
17415;DHT22;8825;48.086;16.426;2023-07-31T06:57:55;23.30;51.40
17415;DHT22;8825;48.086;16.426;2023-07-31T07:00:23;23.40;51.40
17415;DHT22;8825;48.086;16.426;2023-07-31T07:02:51;23.40;51.10
17415;DHT22;8825;48.086;16.426;2023-07-31T07:05:18;23.40;50.60
17415;DHT22;8825;48.086;16.426;2023-07-31T07:07:49;23.50;50.10
17415;DHT22;8825;48.086;16.426;2023-07-31T07:10:15;23.50;49.80
17415;DHT22;8825;48.086;16.426;2023-07-31T07:12:42;23.50;49.30
17415;DHT22;8825;48.086;16.426;2023-07-31T07:15:10;23.50;48.90
17415;DHT22;8825;48.086;16.426;2023-07-31T07:17:37;23.60;48.30
17415;DHT22;8825;48.086;16.426;2023-07-31T07:20:06;23.60;47.80
17415;DHT22;8825;48.086;16.426;2023-07-31T07:22:34;23.60;47.70
17415;DHT22;8825;48.086;16.426;2023-07-31T07:25:03;23.70;47.60
17415;DHT22;8825;48.086;16.426;2023-07-31T07:27:31;23.70;47.70
17415;DHT22;8825;48.086;16.426;2023-07-31T07:29:58;23.70;47.60
17415;DHT22;8825;48.086;16.426;2023-07-31T07:32:26;23.80;47.70
17415;DHT22;8825;48.086;16.426;2023-07-31T07:34:53;23.80;46.90
17415;DHT22;8825;48.086;16.426;2023-07-31T07:37:23;23.90;46.50
17415;DHT22;8825;48.086;16.426;2023-07-31T07:39:50;23.90;46.20
17415;DHT22;8825;48.086;16.426;2023-07-31T07:42:18;24.00;46.10
17415;DHT22;8825;48.086;16.426;2023-07-31T07:44:46;24.00;45.90
17415;DHT22;8825;48.086;16.426;2023-07-31T07:47:13;24.10;46.20
17415;DHT22;8825;48.086;16.426;2023-07-31T07:49:41;24.20;46.30
17415;DHT22;8825;48.086;16.426;2023-07-31T07:52:08;24.20;46.00
17415;DHT22;8825;48.086;16.426;2023-07-31T07:54:36;24.30;45.70
17415;DHT22;8825;48.086;16.426;2023-07-31T07:57:03;24.30;45.10
17415;DHT22;8825;48.086;16.426;2023-07-31T07:59:31;24.40;44.90
17415;DHT22;8825;48.086;16.426;2023-07-31T08:01:58;24.30;44.90
17415;DHT22;8825;48.086;16.426;2023-07-31T08:04:26;24.40;44.40
17415;DHT22;8825;48.086;16.426;2023-07-31T08:06:53;24.40;44.20
17415;DHT22;8825;48.086;16.426;2023-07-31T08:09:21;24.40;44.50
17415;DHT22;8825;48.086;16.426;2023-07-31T08:11:48;24.40;43.80
17415;DHT22;8825;48.086;16.426;2023-07-31T08:14:16;24.50;43.90
17415;DHT22;8825;48.086;16.426;2023-07-31T08:16:43;24.50;44.10
17415;DHT22;8825;48.086;16.426;2023-07-31T08:19:11;24.50;44.00
17415;DHT22;8825;48.086;16.426;2023-07-31T08:21:38;24.50;43.50
17415;DHT22;8825;48.086;16.426;2023-07-31T08:24:06;24.50;43.40
17415;DHT22;8825;48.086;16.426;2023-07-31T08:26:34;24.40;43.00
17415;DHT22;8825;48.086;16.426;2023-07-31T08:29:02;24.40;42.80
17415;DHT22;8825;48.086;16.426;2023-07-31T08:31:29;24.40;42.60
17415;DHT22;8825;48.086;16.426;2023-07-31T08:33:57;24.40;42.50
17415;DHT22;8825;48.086;16.426;2023-07-31T08:36:24;24.50;42.30
17415;DHT22;8825;48.086;16.426;2023-07-31T08:38:52;24.70;42.40
17415;DHT22;8825;48.086;16.426;2023-07-31T08:41:20;24.80;42.30
17415;DHT22;8825;48.086;16.426;2023-07-31T08:43:49;25.00;42.00
17415;DHT22;8825;48.086;16.426;2023-07-31T08:46:17;25.30;41.40
17415;DHT22;8825;48.086;16.426;2023-07-31T08:48:45;25.50;41.50
17415;DHT22;8825;48.086;16.426;2023-07-31T08:51:15;25.90;41.20
17415;DHT22;8825;48.086;16.426;2023-07-31T08:53:43;26.20;40.50
17415;DHT22;8825;48.086;16.426;2023-07-31T08:56:11;26.50;40.20
17415;DHT22;8825;48.086;16.426;2023-07-31T08:58:42;26.80;39.70
17415;DHT22;8825;48.086;16.426;2023-07-31T09:01:11;27.20;38.80
17415;DHT22;8825;48.086;16.426;2023-07-31T09:03:39;27.50;38.50
17415;DHT22;8825;48.086;16.426;2023-07-31T09:06:07;27.90;38.40
17415;DHT22;8825;48.086;16.426;2023-07-31T09:08:35;28.30;38.30
17415;DHT22;8825;48.086;16.426;2023-07-31T09:11:04;28.60;37.50
17415;DHT22;8825;48.086;16.426;2023-07-31T09:13:32;29.00;36.80
17415;DHT22;8825;48.086;16.426;2023-07-31T09:16:00;29.30;36.70
17415;DHT22;8825;48.086;16.426;2023-07-31T09:18:27;29.70;36.20
17415;DHT22;8825;48.086;16.426;2023-07-31T09:21:05;30.00;35.10
17415;DHT22;8825;48.086;16.426;2023-07-31T09:23:44;30.30;35.10
17415;DHT22;8825;48.086;16.426;2023-07-31T09:26:34;30.60;34.40
17415;DHT22;8825;48.086;16.426;2023-07-31T09:29:04;30.90;34.00
17415;DHT22;8825;48.086;16.426;2023-07-31T09:31:40;31.40;33.30
17415;DHT22;8825;48.086;16.426;2023-07-31T09:34:08;31.60;32.60
17415;DHT22;8825;48.086;16.426;2023-07-31T09:36:49;31.80;32.40
17415;DHT22;8825;48.086;16.426;2023-07-31T09:39:19;31.80;31.50
17415;DHT22;8825;48.086;16.426;2023-07-31T09:41:56;31.40;31.90
17415;DHT22;8825;48.086;16.426;2023-07-31T09:44:40;31.10;31.60
17415;DHT22;8825;48.086;16.426;2023-07-31T09:47:30;30.70;32.00
17415;DHT22;8825;48.086;16.426;2023-07-31T09:49:38;30.60;31.90
17415;DHT22;8825;48.086;16.426;2023-07-31T09:52:11;30.70;32.00
17415;DHT22;8825;48.086;16.426;2023-07-31T09:54:37;31.00;31.80
17415;DHT22;8825;48.086;16.426;2023-07-31T09:57:05;31.40;31.10
17415;DHT22;8825;48.086;16.426;2023-07-31T09:59:33;31.60;31.40
17415;DHT22;8825;48.086;16.426;2023-07-31T10:02:01;31.80;31.20
17415;DHT22;8825;48.086;16.426;2023-07-31T10:04:29;32.20;31.10
17415;DHT22;8825;48.086;16.426;2023-07-31T10:06:59;32.50;29.90
17415;DHT22;8825;48.086;16.426;2023-07-31T10:09:29;32.80;30.00
17415;DHT22;8825;48.086;16.426;2023-07-31T10:11:59;33.00;29.10
17415;DHT22;8825;48.086;16.426;2023-07-31T10:14:28;33.20;28.80
17415;DHT22;8825;48.086;16.426;2023-07-31T10:16:57;33.30;28.50
17415;DHT22;8825;48.086;16.426;2023-07-31T10:19:25;33.30;28.30
17415;DHT22;8825;48.086;16.426;2023-07-31T10:21:53;33.20;28.00
17415;DHT22;8825;48.086;16.426;2023-07-31T10:24:24;33.00;28.50
17415;DHT22;8825;48.086;16.426;2023-07-31T10:26:52;33.10;28.30
17415;DHT22;8825;48.086;16.426;2023-07-31T10:29:22;33.40;28.00
17415;DHT22;8825;48.086;16.426;2023-07-31T10:31:51;33.70;27.70
17415;DHT22;8825;48.086;16.426;2023-07-31T10:34:19;33.80;27.60
17415;DHT22;8825;48.086;16.426;2023-07-31T10:36:47;34.00;26.80
17415;DHT22;8825;48.086;16.426;2023-07-31T10:39:37;33.90;26.60
17415;DHT22;8825;48.086;16.426;2023-07-31T10:42:13;33.50;26.70
17415;DHT22;8825;48.086;16.426;2023-07-31T10:44:49;33.10;27.20
17415;DHT22;8825;48.086;16.426;2023-07-31T10:47:18;32.70;26.90
17415;DHT22;8825;48.086;16.426;2023-07-31T10:49:46;32.40;27.40
17415;DHT22;8825;48.086;16.426;2023-07-31T10:52:19;32.10;27.50
17415;DHT22;8825;48.086;16.426;2023-07-31T10:54:45;31.80;27.60
17415;DHT22;8825;48.086;16.426;2023-07-31T10:57:20;31.50;28.10
17415;DHT22;8825;48.086;16.426;2023-07-31T10:59:49;31.30;28.40
17415;DHT22;8825;48.086;16.426;2023-07-31T11:02:26;31.10;28.30
17415;DHT22;8825;48.086;16.426;2023-07-31T11:05:09;31.10;28.40
17415;DHT22;8825;48.086;16.426;2023-07-31T11:07:49;31.10;28.50
17415;DHT22;8825;48.086;16.426;2023-07-31T11:10:17;31.20;28.90
17415;DHT22;8825;48.086;16.426;2023-07-31T11:12:48;31.20;29.00
17415;DHT22;8825;48.086;16.426;2023-07-31T11:15:16;31.20;29.20
17415;DHT22;8825;48.086;16.426;2023-07-31T11:17:43;31.00;28.50
17415;DHT22;8825;48.086;16.426;2023-07-31T11:20:11;31.00;28.60
17415;DHT22;8825;48.086;16.426;2023-07-31T11:22:39;31.00;29.30
17415;DHT22;8825;48.086;16.426;2023-07-31T11:25:08;31.10;29.70
17415;DHT22;8825;48.086;16.426;2023-07-31T11:27:40;31.20;29.00
17415;DHT22;8825;48.086;16.426;2023-07-31T11:30:09;31.10;28.60
17415;DHT22;8825;48.086;16.426;2023-07-31T11:32:37;30.90;28.30
17415;DHT22;8825;48.086;16.426;2023-07-31T11:35:05;30.70;28.20
17415;DHT22;8825;48.086;16.426;2023-07-31T11:37:42;30.70;28.70
17415;DHT22;8825;48.086;16.426;2023-07-31T11:40:10;30.70;29.20
17415;DHT22;8825;48.086;16.426;2023-07-31T11:42:38;30.80;29.00
17415;DHT22;8825;48.086;16.426;2023-07-31T11:45:07;30.90;29.60
17415;DHT22;8825;48.086;16.426;2023-07-31T11:47:38;30.90;29.20
17415;DHT22;8825;48.086;16.426;2023-07-31T11:50:06;31.00;29.30
17415;DHT22;8825;48.086;16.426;2023-07-31T11:52:37;31.00;29.50
17415;DHT22;8825;48.086;16.426;2023-07-31T11:55:07;31.10;29.50
17415;DHT22;8825;48.086;16.426;2023-07-31T11:57:39;31.10;29.50
17415;DHT22;8825;48.086;16.426;2023-07-31T12:00:09;31.20;29.20
17415;DHT22;8825;48.086;16.426;2023-07-31T12:02:38;31.30;28.50
17415;DHT22;8825;48.086;16.426;2023-07-31T12:05:13;31.30;28.50
17415;DHT22;8825;48.086;16.426;2023-07-31T12:07:51;31.40;28.70
17415;DHT22;8825;48.086;16.426;2023-07-31T12:10:30;31.40;28.90
17415;DHT22;8825;48.086;16.426;2023-07-31T12:13:01;31.50;29.00
17415;DHT22;8825;48.086;16.426;2023-07-31T12:15:42;31.50;28.90
17415;DHT22;8825;48.086;16.426;2023-07-31T12:18:14;31.50;29.70
17415;DHT22;8825;48.086;16.426;2023-07-31T12:20:47;31.40;28.70
17415;DHT22;8825;48.086;16.426;2023-07-31T12:23:20;31.40;28.70
17415;DHT22;8825;48.086;16.426;2023-07-31T12:28:41;31.50;28.70
17415;DHT22;8825;48.086;16.426;2023-07-31T12:31:10;31.60;28.20
17415;DHT22;8825;48.086;16.426;2023-07-31T12:33:40;31.70;28.00
17415;DHT22;8825;48.086;16.426;2023-07-31T12:36:10;31.70;27.70
17415;DHT22;8825;48.086;16.426;2023-07-31T12:38:37;31.80;28.00
17415;DHT22;8825;48.086;16.426;2023-07-31T12:41:05;31.90;28.30
17415;DHT22;8825;48.086;16.426;2023-07-31T12:43:37;32.00;28.10
17415;DHT22;8825;48.086;16.426;2023-07-31T12:46:05;32.20;28.40
17415;DHT22;8825;48.086;16.426;2023-07-31T12:48:34;32.20;28.30
17415;DHT22;8825;48.086;16.426;2023-07-31T12:51:03;32.20;27.80
17415;DHT22;8825;48.086;16.426;2023-07-31T12:53:30;32.10;27.80
17415;DHT22;8825;48.086;16.426;2023-07-31T12:55:58;32.10;28.00
17415;DHT22;8825;48.086;16.426;2023-07-31T12:58:26;32.20;28.40
17415;DHT22;8825;48.086;16.426;2023-07-31T13:00:53;32.20;28.30
17415;DHT22;8825;48.086;16.426;2023-07-31T13:03:21;32.20;27.70
17415;DHT22;8825;48.086;16.426;2023-07-31T13:05:49;32.10;28.10
17415;DHT22;8825;48.086;16.426;2023-07-31T13:08:18;32.10;28.20
17415;DHT22;8825;48.086;16.426;2023-07-31T13:10:46;32.10;28.20
17415;DHT22;8825;48.086;16.426;2023-07-31T13:13:13;32.00;28.50
17415;DHT22;8825;48.086;16.426;2023-07-31T13:15:41;31.90;28.40
17415;DHT22;8825;48.086;16.426;2023-07-31T13:18:09;31.90;28.60
17415;DHT22;8825;48.086;16.426;2023-07-31T13:20:36;31.90;28.50
17415;DHT22;8825;48.086;16.426;2023-07-31T13:23:04;31.90;28.20
17415;DHT22;8825;48.086;16.426;2023-07-31T13:25:31;31.90;28.30
17415;DHT22;8825;48.086;16.426;2023-07-31T13:27:59;31.90;27.80
17415;DHT22;8825;48.086;16.426;2023-07-31T13:30:26;31.90;28.00
17415;DHT22;8825;48.086;16.426;2023-07-31T13:32:54;31.90;28.20
17415;DHT22;8825;48.086;16.426;2023-07-31T13:35:21;31.90;28.00
17415;DHT22;8825;48.086;16.426;2023-07-31T13:37:49;31.90;28.20
17415;DHT22;8825;48.086;16.426;2023-07-31T13:40:16;31.90;28.00
17415;DHT22;8825;48.086;16.426;2023-07-31T13:42:44;31.80;27.90
17415;DHT22;8825;48.086;16.426;2023-07-31T13:45:13;31.70;28.10
17415;DHT22;8825;48.086;16.426;2023-07-31T13:47:41;31.70;28.00
17415;DHT22;8825;48.086;16.426;2023-07-31T13:50:09;31.60;27.90
17415;DHT22;8825;48.086;16.426;2023-07-31T13:52:36;31.70;27.80
17415;DHT22;8825;48.086;16.426;2023-07-31T13:55:04;31.60;27.60
17415;DHT22;8825;48.086;16.426;2023-07-31T13:57:32;31.60;27.70
17415;DHT22;8825;48.086;16.426;2023-07-31T13:59:59;31.40;27.50
17415;DHT22;8825;48.086;16.426;2023-07-31T14:02:27;31.30;27.70
17415;DHT22;8825;48.086;16.426;2023-07-31T14:04:54;31.10;28.00
17415;DHT22;8825;48.086;16.426;2023-07-31T14:07:22;31.10;27.80
17415;DHT22;8825;48.086;16.426;2023-07-31T14:09:49;31.20;27.90
17415;DHT22;8825;48.086;16.426;2023-07-31T14:12:17;31.30;28.00
17415;DHT22;8825;48.086;16.426;2023-07-31T14:14:44;31.30;28.00
17415;DHT22;8825;48.086;16.426;2023-07-31T14:17:12;31.40;27.90
17415;DHT22;8825;48.086;16.426;2023-07-31T14:19:40;31.40;27.70
17415;DHT22;8825;48.086;16.426;2023-07-31T14:22:07;31.40;27.90
17415;DHT22;8825;48.086;16.426;2023-07-31T14:24:35;31.30;27.70
17415;DHT22;8825;48.086;16.426;2023-07-31T14:27:02;31.20;27.60
17415;DHT22;8825;48.086;16.426;2023-07-31T14:29:30;31.00;27.70
17415;DHT22;8825;48.086;16.426;2023-07-31T14:31:58;30.90;27.80
17415;DHT22;8825;48.086;16.426;2023-07-31T14:34:26;30.80;28.00
17415;DHT22;8825;48.086;16.426;2023-07-31T14:36:54;30.70;27.90
17415;DHT22;8825;48.086;16.426;2023-07-31T14:39:21;30.60;28.10
17415;DHT22;8825;48.086;16.426;2023-07-31T14:41:49;30.40;28.20
17415;DHT22;8825;48.086;16.426;2023-07-31T14:44:16;30.40;28.30
17415;DHT22;8825;48.086;16.426;2023-07-31T14:46:44;30.30;28.40
17415;DHT22;8825;48.086;16.426;2023-07-31T14:49:11;30.30;28.40
17415;DHT22;8825;48.086;16.426;2023-07-31T14:51:39;30.20;28.50
17415;DHT22;8825;48.086;16.426;2023-07-31T14:54:06;30.30;28.60
17415;DHT22;8825;48.086;16.426;2023-07-31T14:56:35;30.30;28.80
17415;DHT22;8825;48.086;16.426;2023-07-31T14:59:02;30.40;29.00
17415;DHT22;8825;48.086;16.426;2023-07-31T15:01:30;30.40;28.90
17415;DHT22;8825;48.086;16.426;2023-07-31T15:03:58;30.40;28.90
17415;DHT22;8825;48.086;16.426;2023-07-31T15:06:25;30.40;29.10
17415;DHT22;8825;48.086;16.426;2023-07-31T15:08:53;30.50;29.20
17415;DHT22;8825;48.086;16.426;2023-07-31T15:11:20;30.50;29.30
17415;DHT22;8825;48.086;16.426;2023-07-31T15:13:48;30.50;29.40
17415;DHT22;8825;48.086;16.426;2023-07-31T15:16:15;30.60;29.50
17415;DHT22;8825;48.086;16.426;2023-07-31T15:18:43;30.60;29.40
17415;DHT22;8825;48.086;16.426;2023-07-31T15:21:11;30.60;29.50
17415;DHT22;8825;48.086;16.426;2023-07-31T15:23:38;30.50;29.70
17415;DHT22;8825;48.086;16.426;2023-07-31T15:26:06;30.50;29.90
17415;DHT22;8825;48.086;16.426;2023-07-31T15:28:33;30.50;29.90
17415;DHT22;8825;48.086;16.426;2023-07-31T15:31:03;30.50;30.00
17415;DHT22;8825;48.086;16.426;2023-07-31T15:33:30;30.40;30.00
17415;DHT22;8825;48.086;16.426;2023-07-31T15:35:59;30.40;30.20
17415;DHT22;8825;48.086;16.426;2023-07-31T15:38:27;30.40;30.40
17415;DHT22;8825;48.086;16.426;2023-07-31T15:40:55;30.40;30.50
17415;DHT22;8825;48.086;16.426;2023-07-31T15:43:22;30.40;30.60
17415;DHT22;8825;48.086;16.426;2023-07-31T15:45:50;30.40;30.90
17415;DHT22;8825;48.086;16.426;2023-07-31T15:48:17;30.30;30.80